Time;durP1;ratioP1;P1;durP2;ratioP2;P2;SDS_P1;SDS_P2;PMS_P1;PMS_P2;Temp;Humidity;BMP_temperature;BMP_pressure;BME280_temperature;BME280_humidity;BME280_pressure;Samples;Min_cycle;Max_cycle;Signal;HPM_P1;HPM_P2
2020/12/08 00:00:48;;;;;;;171.47;88.80;;;;;;;4.79;76.86;96446.44;1671425;84;26457;-84
2020/12/08 00:03:16;;;;;;;188.40;96.57;;;;;;;4.64;76.77;96449.75;1671406;84;25806;-84
2020/12/08 00:05:43;;;;;;;204.38;110.40;;;;;;;4.61;76.89;96448.29;1671381;84;27514;-85
2020/12/08 00:08:10;;;;;;;203.98;105.43;;;;;;;4.65;77.00;96443.38;1671156;84;26150;-86
2020/12/08 00:10:38;;;;;;;198.90;103.87;;;;;;;4.62;76.90;96448.61;1671291;84;25749;-86
2020/12/08 00:13:05;;;;;;;199.65;106.87;;;;;;;4.61;76.91;96449.63;1671239;84;25901;-84
2020/12/08 00:15:32;;;;;;;205.98;107.92;;;;;;;4.61;76.97;96453.63;1671323;84;26273;-85
2020/12/08 00:17:59;;;;;;;208.40;108.45;;;;;;;4.61;76.99;96452.30;1671198;84;27518;-85
2020/12/08 00:20:27;;;;;;;207.98;113.35;;;;;;;4.59;76.92;96457.01;1670819;84;26320;-85
2020/12/08 00:22:54;;;;;;;214.00;112.15;;;;;;;4.42;76.74;96450.34;1671089;84;26051;-84
2020/12/08 00:25:21;;;;;;;213.20;112.62;;;;;;;4.34;76.94;96443.32;1671295;84;25828;-86
2020/12/08 00:27:49;;;;;;;218.57;115.37;;;;;;;4.35;77.09;96444.12;1671273;84;25756;-85
2020/12/08 00:30:16;;;;;;;225.95;117.42;;;;;;;4.39;77.18;96449.91;1671240;84;27507;-86
2020/12/08 00:32:44;;;;;;;204.60;114.40;;;;;;;4.42;77.21;96452.19;1671339;84;25826;-85
2020/12/08 00:35:14;;;;;;;210.93;111.57;;;;;;;4.44;77.23;96451.48;1671499;84;25832;-85
2020/12/08 00:37:45;;;;;;;201.25;112.03;;;;;;;4.43;77.19;96453.84;1671397;84;26316;-85
2020/12/08 00:40:12;;;;;;;211.22;109.72;;;;;;;4.50;77.32;96455.52;1671479;84;25869;-86
2020/12/08 00:42:40;;;;;;;207.75;109.65;;;;;;;4.54;77.30;96456.80;1671469;84;28632;-87
2020/12/08 00:45:10;;;;;;;176.27;93.65;;;;;;;4.53;77.15;96462.33;1671435;84;25783;-87
2020/12/08 00:47:38;;;;;;;173.30;94.07;;;;;;;4.28;76.81;96463.30;1670950;84;25809;-87
2020/12/08 00:50:07;;;;;;;172.40;88.40;;;;;;;4.14;77.00;96460.20;1671528;84;26534;-85
2020/12/08 00:52:34;;;;;;;170.82;92.08;;;;;;;4.14;77.18;96470.89;1671458;84;25865;-84
2020/12/08 00:55:01;;;;;;;170.20;91.67;;;;;;;4.06;77.14;96467.03;1678312;83;27565;-85
2020/12/08 00:57:28;;;;;;;178.53;92.57;;;;;;;4.06;77.31;96468.38;1693802;83;25802;-86
2020/12/08 00:59:56;;;;;;;176.15;95.07;;;;;;;4.07;77.38;96458.01;1693910;83;25737;-86
2020/12/08 01:02:23;;;;;;;187.68;96.22;;;;;;;4.09;77.43;96470.66;1693964;83;26587;-86
2020/12/08 01:04:51;;;;;;;177.75;95.45;;;;;;;4.14;77.50;96468.22;1693951;83;26287;-86
2020/12/08 01:07:18;;;;;;;188.70;100.10;;;;;;;4.22;77.55;96460.09;1693871;83;27572;-87
2020/12/08 01:09:46;;;;;;;178.97;96.78;;;;;;;4.26;77.51;96456.81;1693836;83;25808;-85
2020/12/08 01:12:13;;;;;;;170.87;94.32;;;;;;;4.25;77.34;96457.83;1693959;83;25733;-84
2020/12/08 01:14:40;;;;;;;169.72;89.67;;;;;;;4.18;77.18;96458.30;1693860;83;25744;-84
2020/12/08 01:17:08;;;;;;;170.20;86.40;;;;;;;4.02;77.08;96463.92;1693840;83;25848;-84
2020/12/08 01:19:35;;;;;;;163.57;84.92;;;;;;;3.98;77.26;96458.13;1693904;83;27519;-85
2020/12/08 01:22:02;;;;;;;155.52;82.22;;;;;;;3.98;77.33;96460.00;1693824;83;25767;-85
2020/12/08 01:24:30;;;;;;;177.27;89.37;;;;;;;3.99;77.41;96461.12;1693987;83;25752;-85
2020/12/08 01:26:58;;;;;;;184.82;90.72;;;;;;;4.02;77.42;96459.09;1694012;83;26349;-86
2020/12/08 01:29:25;;;;;;;194.52;94.20;;;;;;;3.97;77.36;96455.17;1693869;83;25710;-85
2020/12/08 01:31:52;;;;;;;196.90;97.17;;;;;;;3.97;77.41;96454.34;1693853;83;27508;-86
2020/12/08 01:34:20;;;;;;;219.87;102.90;;;;;;;3.98;77.37;96451.99;1693781;83;25883;-85
2020/12/08 01:36:51;;;;;;;216.45;102.40;;;;;;;3.95;77.29;96451.86;1693906;83;26015;-85
2020/12/08 01:39:19;;;;;;;219.32;105.67;;;;;;;3.92;77.36;96455.42;1694029;83;26231;-84
2020/12/08 01:41:46;;;;;;;233.23;109.80;;;;;;;3.92;77.42;96460.25;1693937;83;25847;-85
2020/12/08 01:44:15;;;;;;;230.40;107.47;;;;;;;3.92;77.43;96459.42;1693899;83;28484;-85
2020/12/08 01:46:42;;;;;;;218.52;103.32;;;;;;;3.91;77.42;96463.94;1693891;83;25753;-83
2020/12/08 01:49:09;;;;;;;217.95;105.15;;;;;;;3.88;77.39;96466.98;1693882;83;25802;-83
2020/12/08 01:51:38;;;;;;;224.32;107.47;;;;;;;3.88;77.46;96460.31;1693874;83;26682;-86
2020/12/08 01:54:06;;;;;;;205.50;102.00;;;;;;;3.88;77.50;96460.31;1693851;83;25810;-82
2020/12/08 01:56:33;;;;;;;203.47;101.20;;;;;;;3.89;77.54;96469.14;1680222;83;27519;-84
2020/12/08 01:59:00;;;;;;;204.23;101.20;;;;;;;3.91;77.58;96471.95;1676757;84;25930;-85
2020/12/08 02:01:27;;;;;;;211.07;103.45;;;;;;;3.94;77.59;96468.90;1676738;84;25744;-83
2020/12/08 02:03:55;;;;;;;215.60;103.80;;;;;;;3.99;77.63;96475.80;1676875;84;25698;-83
2020/12/08 02:06:24;;;;;;;204.13;100.12;;;;;;;3.99;77.49;96474.47;1676770;84;25808;-84
2020/12/08 02:08:52;;;;;;;188.65;93.55;;;;;;;3.93;77.38;96472.59;1676768;84;26472;-83
2020/12/08 02:11:20;;;;;;;172.53;85.70;;;;;;;3.89;77.34;96465.14;1676812;84;25778;-85
2020/12/08 02:13:48;;;;;;;152.02;75.42;;;;;;;3.88;77.41;96466.98;1676694;84;25754;-84
2020/12/08 02:16:16;;;;;;;143.37;73.40;;;;;;;3.84;77.28;96460.40;1676571;84;26976;-83
2020/12/08 02:18:43;;;;;;;146.85;73.55;;;;;;;3.76;77.29;96465.85;1676712;84;25828;-83
2020/12/08 02:21:11;;;;;;;142.28;73.22;;;;;;;3.73;77.38;96464.92;1676694;84;27557;-83
2020/12/08 02:23:38;;;;;;;143.22;73.97;;;;;;;3.73;77.46;96463.59;1676651;84;25934;-83
2020/12/08 02:26:06;;;;;;;146.02;74.42;;;;;;;3.74;77.49;96475.92;1676763;84;25836;-82
2020/12/08 02:28:34;;;;;;;157.52;77.08;;;;;;;3.72;77.43;96472.61;1676812;84;25758;-84
2020/12/08 02:31:01;;;;;;;158.90;81.00;;;;;;;3.70;77.47;96471.97;1676832;84;26515;-85
2020/12/08 02:33:30;;;;;;;158.63;76.90;;;;;;;3.72;77.53;96475.28;1676706;84;28484;-83
2020/12/08 02:35:57;;;;;;;161.30;80.90;;;;;;;3.72;77.55;96465.11;1676571;84;25780;-84
2020/12/08 02:38:27;;;;;;;155.07;80.00;;;;;;;3.71;77.57;96461.61;1677173;84;25729;-84
2020/12/08 02:40:55;;;;;;;151.12;79.25;;;;;;;3.73;77.60;96467.59;1676806;84;26516;-85
2020/12/08 02:43:23;;;;;;;149.50;75.20;;;;;;;3.74;77.52;96464.41;1676880;84;25778;-84
2020/12/08 02:45:51;;;;;;;146.95;75.92;;;;;;;3.76;77.58;96465.02;1676836;84;27552;-85
2020/12/08 02:48:19;;;;;;;149.45;76.05;;;;;;;3.73;77.43;96471.59;1676810;84;25698;-86
2020/12/08 02:50:46;;;;;;;156.47;73.97;;;;;;;3.70;77.46;96468.47;1676869;84;25760;-85
2020/12/08 02:53:13;;;;;;;148.30;71.47;;;;;;;3.67;77.41;96475.02;1676758;84;25804;-83
2020/12/08 02:55:48;;;;;;;147.85;71.90;;;;;;;3.65;77.39;96467.70;1683258;84;25714;-84
2020/12/08 02:58:17;;;;;;;150.95;69.95;;;;;;;3.60;77.40;96464.28;1701878;82;28603;-85
2020/12/08 03:00:44;;;;;;;156.00;71.37;;;;;;;3.59;77.49;96471.14;1701877;82;25748;-86
2020/12/08 03:03:11;;;;;;;145.35;71.57;;;;;;;3.59;77.50;96475.15;1701683;82;25810;-86
2020/12/08 03:05:39;;;;;;;154.87;71.70;;;;;;;3.56;77.47;96464.84;1701983;82;26597;-85
2020/12/08 03:08:06;;;;;;;167.98;74.72;;;;;;;3.54;77.47;96465.03;1701908;82;25856;-85
2020/12/08 03:10:34;;;;;;;163.52;73.45;;;;;;;3.50;77.38;96465.08;1701847;82;27555;-83
2020/12/08 03:13:01;;;;;;;165.00;74.47;;;;;;;3.39;77.36;96466.09;1701749;82;25753;-82
2020/12/08 03:15:28;;;;;;;159.20;76.60;;;;;;;3.30;77.42;96469.91;1701919;82;25856;-85
2020/12/08 03:17:56;;;;;;;149.12;73.15;;;;;;;3.31;77.69;96470.22;1701827;82;26479;-83
2020/12/08 03:20:27;;;;;;;161.03;76.53;;;;;;;3.35;77.78;96465.67;1701885;82;25765;-85
2020/12/08 03:22:55;;;;;;;163.75;76.07;;;;;;;3.38;77.81;96469.80;1702053;82;27652;-84
2020/12/08 03:25:22;;;;;;;152.80;73.75;;;;;;;3.40;77.86;96470.42;1701770;82;26175;-83
2020/12/08 03:27:49;;;;;;;165.70;75.25;;;;;;;3.40;77.78;96459.23;1702026;82;26309;-85
2020/12/08 03:30:16;;;;;;;147.32;70.62;;;;;;;3.39;77.74;96450.92;1701842;82;25784;-85
2020/12/08 03:32:44;;;;;;;158.18;73.00;;;;;;;3.41;77.70;96456.06;1701895;82;25961;-86
2020/12/08 03:35:11;;;;;;;171.95;78.60;;;;;;;3.38;77.65;96453.80;1701823;82;27489;-83
2020/12/08 03:37:38;;;;;;;170.70;78.00;;;;;;;3.40;77.70;96452.57;1701751;82;26192;-85
2020/12/08 03:40:05;;;;;;;167.72;78.28;;;;;;;3.42;77.68;96459.05;1701822;82;25801;-86
2020/12/08 03:42:33;;;;;;;174.25;79.45;;;;;;;3.38;77.53;96460.47;1701776;82;25793;-85
2020/12/08 03:45:00;;;;;;;161.45;76.55;;;;;;;3.25;77.28;96465.16;1701812;82;25701;-86
2020/12/08 03:47:28;;;;;;;168.43;76.75;;;;;;;3.16;77.46;96462.26;1701965;82;27548;-84
2020/12/08 03:49:55;;;;;;;165.12;74.03;;;;;;;3.18;77.58;96459.73;1701778;82;25315;-86
2020/12/08 03:52:22;;;;;;;168.00;76.53;;;;;;;3.17;77.59;96463.41;1701943;82;25899;-85
2020/12/08 03:54:49;;;;;;;157.88;70.40;;;;;;;3.18;77.65;96463.73;1701792;82;26465;-85
2020/12/08 03:57:17;;;;;;;147.13;70.32;;;;;;;3.22;77.72;96466.35;1677913;82;25766;-86
2020/12/08 03:59:44;;;;;;;149.50;68.62;;;;;;;3.25;77.64;96472.65;1671355;84;28410;-85
2020/12/08 04:02:11;;;;;;;149.07;68.72;;;;;;;3.20;77.41;96472.37;1671196;84;25402;-85
2020/12/08 04:04:39;;;;;;;142.10;65.28;;;;;;;3.16;77.41;96479.09;1671442;84;25887;-86
2020/12/08 04:07:06;;;;;;;136.62;64.12;;;;;;;3.12;77.47;96479.16;1671501;84;25797;-83
2020/12/08 04:09:33;;;;;;;136.43;66.75;;;;;;;3.13;77.55;96481.33;1671611;84;25809;-85
2020/12/08 04:12:01;;;;;;;131.85;63.63;;;;;;;3.05;77.49;96482.23;1671513;84;27395;-83
2020/12/08 04:14:28;;;;;;;148.02;69.65;;;;;;;3.02;77.67;96483.94;1671385;84;25765;-85
2020/12/08 04:16:55;;;;;;;142.15;66.72;;;;;;;3.04;77.73;96489.91;1671533;84;25849;-85
2020/12/08 04:19:22;;;;;;;140.10;68.52;;;;;;;3.05;77.77;96490.23;1671491;84;26538;-84
2020/12/08 04:21:50;;;;;;;134.63;66.05;;;;;;;2.99;77.74;96492.33;1671536;84;25316;-86
2020/12/08 04:24:17;;;;;;;134.15;66.47;;;;;;;3.00;77.91;96500.66;1671399;84;27577;-83
2020/12/08 04:26:45;;;;;;;137.55;66.07;;;;;;;3.06;77.99;96505.22;1671423;84;25794;-87
2020/12/08 04:29:13;;;;;;;139.25;67.65;;;;;;;3.10;77.99;96511.02;1671531;84;25826;-86
2020/12/08 04:31:40;;;;;;;130.65;65.60;;;;;;;3.14;77.97;96506.44;1671617;84;25821;-86
2020/12/08 04:34:07;;;;;;;125.80;61.58;;;;;;;3.11;77.90;96501.51;1671470;84;25866;-84
2020/12/08 04:36:34;;;;;;;118.00;59.88;;;;;;;3.10;77.87;96504.36;1671421;84;27485;-86
2020/12/08 04:39:02;;;;;;;115.20;60.83;;;;;;;2.96;77.73;96500.69;1671343;84;25750;-83
2020/12/08 04:41:30;;;;;;;115.28;59.35;;;;;;;2.88;77.83;96504.80;1671392;84;25737;-86
2020/12/08 04:43:57;;;;;;;123.42;63.28;;;;;;;2.86;77.97;96503.66;1671540;84;25975;-84
2020/12/08 04:46:26;;;;;;;131.10;64.85;;;;;;;2.92;78.08;96506.06;1671488;84;25856;-85
2020/12/08 04:48:54;;;;;;;126.42;64.30;;;;;;;2.91;78.09;96500.41;1671615;84;27538;-83
2020/12/08 04:51:21;;;;;;;121.37;64.92;;;;;;;2.95;78.16;96504.37;1671523;84;26559;-83
2020/12/08 04:53:55;;;;;;;125.30;64.25;;;;;;;2.96;78.12;96508.69;1671469;84;25973;-85
2020/12/08 04:56:22;;;;;;;115.88;60.85;;;;;;;3.01;78.14;96512.14;1671332;84;25856;-83
2020/12/08 04:58:49;;;;;;;118.13;62.38;;;;;;;3.05;78.13;96506.23;1671601;84;25814;-84
2020/12/08 05:01:30;;;;;;;121.67;65.72;;;;;;;3.00;78.06;96504.66;1671460;84;27539;-83
2020/12/08 05:04:02;;;;;;;122.98;63.55;;;;;;;3.02;78.12;96507.94;1671341;84;25707;-83
2020/12/08 05:06:30;;;;;;;115.55;64.07;;;;;;;3.01;78.12;96508.97;1671742;84;25713;-84
2020/12/08 05:09:02;;;;;;;117.55;62.65;;;;;;;3.04;78.11;96513.08;1671500;84;26516;-87
2020/12/08 05:11:30;;;;;;;129.12;65.17;;;;;;;3.03;78.09;96497.59;1671737;84;25809;-83
2020/12/08 05:14:02;;;;;;;133.72;67.15;;;;;;;2.98;77.95;96492.01;1671519;84;28500;-82
2020/12/08 05:16:29;;;;;;;133.97;66.05;;;;;;;2.95;78.05;96489.70;1671477;84;26153;-83
2020/12/08 05:19:10;;;;;;;120.17;64.45;;;;;;;2.99;78.18;96496.33;1671461;84;25848;-83
2020/12/08 05:21:51;;;;;;;120.47;62.90;;;;;;;3.06;78.28;96499.89;1671438;84;25823;-83
2020/12/08 05:24:27;;;;;;;112.30;61.00;;;;;;;3.09;78.20;96502.19;1671494;84;25896;-82
2020/12/08 05:27:06;;;;;;;122.42;61.80;;;;;;;3.07;78.04;96498.88;1671349;84;27523;-83
2020/12/08 05:29:36;;;;;;;119.62;62.03;;;;;;;2.99;77.88;96489.66;1671402;84;25745;-83
2020/12/08 05:32:29;;;;;;;116.80;61.15;;;;;;;2.87;77.81;96495.15;1671450;84;25817;-84
2020/12/08 05:34:56;;;;;;;122.55;63.13;;;;;;;2.83;77.90;96492.52;1671297;84;25766;-85
2020/12/08 05:37:23;;;;;;;116.85;59.75;;;;;;;2.85;78.07;96501.99;1671392;84;26216;-85
2020/12/08 05:39:52;;;;;;;120.37;61.50;;;;;;;2.87;78.05;96512.48;1671363;84;27512;-85
2020/12/08 05:42:21;;;;;;;122.58;59.65;;;;;;;2.86;77.84;96518.81;1671285;84;26061;-85
2020/12/08 05:44:52;;;;;;;114.97;61.28;;;;;;;2.79;77.74;96520.55;1671320;84;26385;-85
2020/12/08 05:47:21;;;;;;;111.08;59.98;;;;;;;2.71;77.59;96524.14;1671366;84;26556;-85
2020/12/08 05:50:00;;;;;;;127.70;66.57;;;;;;;2.65;77.58;96522.23;1671296;84;25893;-84
2020/12/08 05:52:20;;;;;;;125.45;64.50;;;;;;;2.61;77.76;96527.59;1670238;84;27527;-84
2020/12/08 05:54:47;;;;;;;123.42;62.10;;;;;;;2.61;77.74;96530.25;1671162;84;26257;-85
2020/12/08 05:57:15;;;;;;;123.35;63.70;;;;;;;2.56;77.67;96547.28;1671277;84;25789;-86
2020/12/08 05:59:43;;;;;;;120.97;62.38;;;;;;;2.51;77.62;96549.17;1671448;84;26450;-85
2020/12/08 06:02:10;;;;;;;122.67;63.63;;;;;;;2.46;77.57;96550.21;1671542;84;26361;-85
2020/12/08 06:04:42;;;;;;;124.05;64.37;;;;;;;2.42;77.42;96554.73;1671404;84;28654;-85
2020/12/08 06:07:09;;;;;;;127.38;63.63;;;;;;;2.28;77.46;96554.23;1671463;84;26450;-86
2020/12/08 06:09:37;;;;;;;120.97;62.35;;;;;;;2.26;77.70;96546.42;1671366;84;25847;-85
2020/12/08 06:12:17;;;;;;;119.87;60.05;;;;;;;2.28;77.86;96552.41;1691303;84;26000;-85
2020/12/08 06:14:44;;;;;;;122.67;62.67;;;;;;;2.31;77.85;96556.02;1684761;84;25895;-85
2020/12/08 06:17:11;;;;;;;121.28;60.98;;;;;;;2.31;77.74;96560.51;1679337;84;27442;-84
2020/12/08 06:19:39;;;;;;;114.00;60.12;;;;;;;2.29;77.65;96566.04;1680605;84;25850;-83
2020/12/08 06:22:14;;;;;;;126.18;63.75;;;;;;;2.27;77.62;96565.89;1672842;83;25670;-84
2020/12/08 06:24:55;;;;;;;121.50;61.02;;;;;;;2.26;77.59;96573.05;1671322;84;26393;-84
2020/12/08 06:27:24;;;;;;;120.05;62.33;;;;;;;2.22;77.38;96571.75;1671502;84;25883;-83
2020/12/08 06:29:56;;;;;;;121.62;63.87;;;;;;;2.13;77.36;96567.00;1671401;84;27584;-84
2020/12/08 06:32:27;;;;;;;125.20;61.80;;;;;;;2.07;77.32;96568.20;1671541;84;26414;-84
2020/12/08 06:35:11;;;;;;;118.13;58.63;;;;;;;2.01;77.36;96575.08;1671165;84;25949;-84
2020/12/08 06:37:54;;;;;;;120.40;59.90;;;;;;;1.95;77.27;96572.29;1671029;84;25932;-85
2020/12/08 06:40:24;;;;;;;123.30;59.70;;;;;;;1.90;77.35;96572.02;1691380;84;25720;-85
2020/12/08 06:42:53;;;;;;;129.90;61.45;;;;;;;1.85;77.32;96577.03;1671331;84;27575;-83
2020/12/08 06:45:24;;;;;;;110.22;56.37;;;;;;;1.85;77.31;96571.70;1692631;84;25432;-83
2020/12/08 06:47:52;;;;;;;100.80;50.10;;;;;;;1.78;77.24;96573.76;1682367;83;26295;-84
2020/12/08 06:50:31;;;;;;;94.80;49.63;;;;;;;1.75;77.26;96578.59;1671341;84;25788;-83
2020/12/08 06:53:03;;;;;;;100.47;50.28;;;;;;;1.66;77.25;96572.51;1671411;84;25761;-85
2020/12/08 06:55:35;;;;;;;98.55;49.75;;;;;;;1.60;77.32;96579.02;1675028;84;27586;-83
2020/12/08 06:58:08;;;;;;;96.78;48.65;;;;;;;1.61;77.55;96577.52;1685136;84;26298;-83
2020/12/08 07:00:36;;;;;;;99.50;49.55;;;;;;;1.64;77.52;96581.16;1682143;84;25782;-84
2020/12/08 07:03:05;;;;;;;89.55;48.73;;;;;;;1.69;77.58;96579.31;1699372;84;25792;-86
2020/12/08 07:05:34;;;;;;;92.72;47.40;;;;;;;1.69;77.54;96585.97;1674780;84;26248;-83
2020/12/08 07:08:07;;;;;;;89.40;45.60;;;;;;;1.66;77.38;96589.80;1685538;84;27776;-84
2020/12/08 07:10:40;;;;;;;90.12;46.55;;;;;;;1.61;77.34;96592.14;1679011;84;25873;-85
2020/12/08 07:13:15;;;;;;;90.03;47.10;;;;;;;1.61;77.39;96594.81;1695740;83;26467;-84
2020/12/08 07:15:44;;;;;;;90.53;44.30;;;;;;;1.59;77.34;96596.80;1687367;84;27076;-85
2020/12/08 07:18:13;;;;;;;70.97;35.33;;;;;;;1.64;77.53;96591.80;1671042;84;25775;-85
2020/12/08 07:20:43;;;;;;;68.90;35.13;;;;;;;1.68;77.57;96601.60;1687263;84;28957;-85
2020/12/08 07:23:12;;;;;;;78.75;39.08;;;;;;;1.69;77.56;96605.39;1670804;84;26126;-84
2020/12/08 07:25:40;;;;;;;81.17;40.67;;;;;;;1.69;77.56;96608.58;1670987;84;25792;-84
2020/12/08 07:28:09;;;;;;;72.70;40.35;;;;;;;1.66;77.55;96611.08;1671004;84;26466;-84
2020/12/08 07:30:36;;;;;;;75.55;37.63;;;;;;;1.61;77.66;96614.75;1671331;84;26064;-85
2020/12/08 07:33:13;;;;;;;69.62;37.00;;;;;;;1.59;77.82;96624.73;1689180;84;27576;-86
2020/12/08 07:35:45;;;;;;;74.58;37.78;;;;;;;1.61;77.97;96624.07;1672655;84;25834;-85
2020/12/08 07:38:13;;;;;;;73.00;37.80;;;;;;;1.68;78.09;96626.38;1672812;84;25735;-83
2020/12/08 07:40:42;;;;;;;79.37;41.58;;;;;;;1.76;78.15;96630.81;1671158;84;26458;-84
2020/12/08 07:43:10;;;;;;;84.07;41.00;;;;;;;1.79;78.14;96621.98;1695124;84;25793;-83
2020/12/08 07:45:46;;;;;;;71.57;38.65;;;;;;;1.88;78.22;96622.75;1686577;84;28472;-86
2020/12/08 07:48:19;;;;;;;71.47;38.02;;;;;;;1.98;78.28;96630.50;1670934;84;26315;-86
2020/12/08 07:50:47;;;;;;;85.45;42.78;;;;;;;1.98;78.17;96629.17;1671074;84;25738;-84
2020/12/08 07:53:16;;;;;;;89.62;45.03;;;;;;;1.97;78.23;96624.34;1670615;84;43374;-87
2020/12/08 07:55:45;;;;;;;121.07;57.38;;;;;;;2.06;78.36;96628.60;1680682;84;27184;-84
2020/12/08 07:58:13;;;;;;;141.30;61.90;;;;;;;2.15;78.46;96619.58;1694189;84;27501;-86
2020/12/08 08:00:41;;;;;;;133.37;63.28;;;;;;;2.18;78.36;96625.85;1693385;83;26132;-84
2020/12/08 08:03:08;;;;;;;138.85;64.05;;;;;;;2.24;78.36;96623.49;1693516;83;25855;-85
2020/12/08 08:05:36;;;;;;;134.07;60.12;;;;;;;2.29;78.32;96627.30;1699510;83;25744;-85
2020/12/08 08:08:03;;;;;;;115.72;56.90;;;;;;;2.39;78.34;96633.20;1707472;83;25764;-85
2020/12/08 08:10:30;;;;;;;111.37;56.70;;;;;;;2.48;78.36;96629.45;1713879;83;27553;-85
2020/12/08 08:12:58;;;;;;;132.82;59.63;;;;;;;2.54;78.33;96621.23;1693462;83;26048;-85
2020/12/08 08:15:25;;;;;;;122.70;58.73;;;;;;;2.59;78.26;96621.52;1693596;83;25817;-84
2020/12/08 08:17:53;;;;;;;108.20;54.77;;;;;;;2.66;78.22;96624.28;1693730;83;25705;-85
2020/12/08 08:20:20;;;;;;;115.03;55.55;;;;;;;2.74;78.26;96626.39;1693845;83;26342;-85
2020/12/08 08:22:47;;;;;;;124.10;62.98;;;;;;;2.83;78.34;96622.63;1693797;83;27521;-84
2020/12/08 08:25:15;;;;;;;125.58;63.05;;;;;;;2.97;78.41;96608.98;1693725;83;25764;-84
2020/12/08 08:27:42;;;;;;;115.57;56.80;;;;;;;3.16;78.45;96615.59;1693721;83;25792;-84
2020/12/08 08:30:10;;;;;;;120.28;56.20;;;;;;;3.35;78.49;96611.55;1693776;83;26395;-85
2020/12/08 08:32:37;;;;;;;120.65;58.65;;;;;;;3.53;78.52;96614.64;1693813;83;25813;-86
2020/12/08 08:35:05;;;;;;;126.72;55.58;;;;;;;3.74;78.50;96620.06;1693774;83;28455;-86
2020/12/08 08:37:32;;;;;;;108.00;52.38;;;;;;;3.95;78.56;96626.76;1693654;83;25312;-85
2020/12/08 08:40:00;;;;;;;96.53;48.08;;;;;;;4.24;78.57;96619.63;1704489;83;25694;-86
2020/12/08 08:42:27;;;;;;;98.42;49.23;;;;;;;4.54;78.45;96625.68;1703082;83;25888;-85
2020/12/08 08:44:54;;;;;;;82.88;44.40;;;;;;;4.76;78.10;96627.80;1699353;83;26189;-86
2020/12/08 08:47:22;;;;;;;77.08;39.92;;;;;;;4.96;77.72;96628.77;1693771;83;27575;-85
2020/12/08 08:49:49;;;;;;;75.83;39.67;;;;;;;5.13;77.49;96626.13;1694026;83;26483;-84
2020/12/08 08:52:17;;;;;;;69.92;37.78;;;;;;;5.37;77.36;96620.30;1722664;83;25756;-85
2020/12/08 08:54:44;;;;;;;74.17;41.95;;;;;;;5.59;77.08;96626.38;1704288;83;26316;-84
2020/12/08 08:57:11;;;;;;;82.90;46.90;;;;;;;5.77;76.91;96628.52;1692594;83;25358;-87
2020/12/08 08:59:39;;;;;;;83.80;47.45;;;;;;;5.94;76.66;96631.17;1671530;84;27502;-85
2020/12/08 09:02:06;;;;;;;75.90;39.63;;;;;;;6.04;76.39;96626.25;1696058;84;25814;-85
2020/12/08 09:04:34;;;;;;;80.65;42.13;;;;;;;6.20;76.43;96624.24;1685959;84;25766;-85
2020/12/08 09:07:02;;;;;;;68.83;38.20;;;;;;;6.35;76.29;96623.55;1674250;84;25805;-86
2020/12/08 09:09:30;;;;;;;65.08;35.85;;;;;;;6.47;76.07;96632.14;1671449;84;25925;-87
2020/12/08 09:11:57;;;;;;;52.53;30.37;;;;;;;6.66;75.96;96632.34;1692006;83;27486;-86
2020/12/08 09:14:27;;;;;;;50.75;29.07;;;;;;;6.91;75.71;96631.21;1669482;84;26141;-86
2020/12/08 09:16:54;;;;;;;54.58;28.67;;;;;;;7.03;75.27;96630.89;1668472;84;25718;-85
2020/12/08 09:19:21;;;;;;;57.15;29.42;;;;;;;7.23;75.28;96628.52;1708350;83;25849;-85
2020/12/08 09:21:55;;;;;;;48.73;26.37;;;;;;;7.42;74.97;96630.02;1677141;84;25838;-86
2020/12/08 09:24:23;;;;;;;50.30;25.60;;;;;;;7.57;74.44;96619.34;1677733;84;28467;-86
2020/12/08 09:26:50;;;;;;;45.63;23.65;;;;;;;7.74;73.85;96618.85;1668391;84;25812;-85
2020/12/08 09:29:17;;;;;;;33.85;18.82;;;;;;;7.82;73.51;96619.98;1684961;84;25796;-84
2020/12/08 09:31:45;;;;;;;21.50;11.45;;;;;;;7.89;73.47;96620.77;1690714;84;25719;-86
2020/12/08 09:34:12;;;;;;;17.92;10.05;;;;;;;8.12;73.17;96614.86;1682913;84;25771;-86
2020/12/08 09:36:39;;;;;;;25.10;13.90;;;;;;;8.32;72.19;96618.83;1676421;84;27495;-86
2020/12/08 09:39:07;;;;;;;13.95;8.48;;;;;;;8.46;72.04;96607.75;1684347;84;25809;-87
2020/12/08 09:41:34;;;;;;;16.15;8.45;;;;;;;8.81;72.34;96610.83;1669754;84;25679;-86
2020/12/08 09:44:02;;;;;;;12.88;7.72;;;;;;;9.27;71.90;96608.23;1686582;84;26513;-86
2020/12/08 09:46:29;;;;;;;16.17;8.60;;;;;;;9.44;70.97;96603.89;1668517;84;25889;-85
2020/12/08 09:48:57;;;;;;;13.00;7.80;;;;;;;9.60;70.48;96597.92;1668485;84;27555;-85
2020/12/08 09:51:24;;;;;;;8.43;5.95;;;;;;;9.80;70.59;96598.20;1683334;84;25794;-86
2020/12/08 09:53:51;;;;;;;8.33;5.33;;;;;;;10.08;70.47;96590.38;1670268;84;25761;-86
2020/12/08 09:56:19;;;;;;;8.45;5.50;;;;;;;10.40;69.82;96590.47;1703386;83;26444;-86
2020/12/08 09:58:46;;;;;;;6.25;4.55;;;;;;;10.72;69.32;96588.87;1690275;83;25805;-87
2020/12/08 10:01:14;;;;;;;9.75;5.55;;;;;;;10.85;68.80;96590.01;1727175;81;26702;-86
2020/12/08 10:03:41;;;;;;;10.85;5.87;;;;;;;11.04;68.16;96594.77;1727004;81;25683;-87
2020/12/08 10:06:08;;;;;;;12.28;7.53;;;;;;;11.16;67.79;96593.72;1727040;81;25715;-86
2020/12/08 10:08:36;;;;;;;9.90;6.00;;;;;;;11.35;67.34;96581.45;1727031;81;26365;-86
2020/12/08 10:11:03;;;;;;;7.75;4.58;;;;;;;11.28;66.21;96583.44;1727012;81;25796;-87
2020/12/08 10:13:30;;;;;;;7.92;5.08;;;;;;;11.31;66.60;96585.16;1726958;81;28836;-86
2020/12/08 10:15:59;;;;;;;8.95;5.00;;;;;;;11.58;66.43;96577.91;1753393;81;25766;-88
2020/12/08 10:18:26;;;;;;;7.12;4.80;;;;;;;11.74;65.74;96569.86;1742599;81;26238;-87
2020/12/08 10:20:53;;;;;;;7.90;5.22;;;;;;;11.89;64.69;96564.80;1727021;81;25724;-88
2020/12/08 10:23:21;;;;;;;7.30;5.22;;;;;;;12.04;65.08;96567.00;1745304;81;25860;-87
2020/12/08 10:25:48;;;;;;;8.83;5.22;;;;;;;12.27;65.03;96566.08;1729788;81;27492;-86
2020/12/08 10:28:15;;;;;;;7.62;4.72;;;;;;;12.46;64.21;96570.20;1736523;81;26216;-86
2020/12/08 10:30:43;;;;;;;8.25;5.40;;;;;;;12.57;63.97;96573.38;1753420;81;25736;-87
2020/12/08 10:33:10;;;;;;;7.70;5.00;;;;;;;12.88;63.52;96572.56;1749580;81;25763;-87
2020/12/08 10:35:38;;;;;;;7.30;5.30;;;;;;;13.10;62.54;96574.81;1734585;81;25849;-89
2020/12/08 10:38:05;;;;;;;7.78;5.30;;;;;;;13.18;62.68;96579.02;1737637;81;27471;-88
2020/12/08 10:40:32;;;;;;;63.73;31.45;;;;;;;13.53;62.49;96574.64;1751277;81;25779;-88
2020/12/08 10:43:00;;;;;;;26.80;17.45;;;;;;;13.84;62.00;96579.42;1745455;81;25823;-87
2020/12/08 10:45:27;;;;;;;10.65;5.95;;;;;;;13.98;60.27;96572.55;1741790;81;25692;-87
2020/12/08 10:47:54;;;;;;;6.05;4.33;;;;;;;13.60;59.31;96571.23;1727062;81;25861;-89
2020/12/08 10:50:22;;;;;;;5.95;4.70;;;;;;;13.21;58.80;96577.17;1726898;81;28445;-86
2020/12/08 10:52:49;;;;;;;7.25;4.87;;;;;;;13.19;60.41;96580.66;1743389;81;26279;-87
2020/12/08 10:55:17;;;;;;;9.38;5.87;;;;;;;13.60;59.98;96569.88;1730834;81;25891;-86
2020/12/08 10:57:45;;;;;;;7.72;4.75;;;;;;;13.68;59.98;96562.13;1726772;81;25804;-87
2020/12/08 11:00:12;;;;;;;6.90;4.40;;;;;;;13.78;59.45;96561.42;1747616;81;25887;-87
2020/12/08 11:02:40;;;;;;;6.65;4.40;;;;;;;14.00;59.29;96560.91;1726464;81;27537;-87
2020/12/08 11:05:07;;;;;;;6.42;3.52;;;;;;;14.25;58.70;96564.99;1726296;81;25760;-85
2020/12/08 11:07:35;;;;;;;6.05;3.80;;;;;;;14.42;57.97;96571.16;1726245;81;26006;-89
2020/12/08 11:10:02;;;;;;;5.90;3.80;;;;;;;14.38;57.78;96575.42;1726339;81;26518;-89
2020/12/08 11:12:30;;;;;;;5.97;4.45;;;;;;;14.53;57.50;96576.98;1726440;81;25745;-82
2020/12/08 11:14:57;;;;;;;6.55;4.50;;;;;;;14.40;56.90;96577.38;1726391;81;27501;-88
2020/12/08 11:17:25;;;;;;;9.00;4.90;;;;;;;14.57;56.96;96578.66;1734121;81;25733;-85
2020/12/08 11:19:53;;;;;;;9.58;5.80;;;;;;;14.45;56.79;96573.38;1739164;81;25789;-84
2020/12/08 11:22:20;;;;;;;8.13;5.33;;;;;;;14.58;57.10;96568.08;1747744;81;25764;-85
2020/12/08 11:24:47;;;;;;;7.90;5.35;;;;;;;14.72;56.38;96568.77;1741194;81;25826;-88